sensor_id;sensor_type;location;lat;lon;timestamp;P1;durP1;ratioP1;P2;durP2;ratioP2
72761;SDS011;60886;55.034;73.150;2023-05-07T00:00:13;33.85;;;13.55;;
72761;SDS011;60886;55.034;73.150;2023-05-07T00:03:18;31.13;;;13.55;;
72761;SDS011;60886;55.034;73.150;2023-05-07T00:06:21;30.30;;;12.93;;
72761;SDS011;60886;55.034;73.150;2023-05-07T00:09:22;34.93;;;13.60;;
72761;SDS011;60886;55.034;73.150;2023-05-07T00:12:24;35.07;;;13.90;;
72761;SDS011;60886;55.034;73.150;2023-05-07T00:15:26;30.15;;;12.68;;
72761;SDS011;60886;55.034;73.150;2023-05-07T00:18:27;32.03;;;14.30;;
72761;SDS011;60886;55.034;73.150;2023-05-07T00:21:29;30.65;;;13.25;;
72761;SDS011;60886;55.034;73.150;2023-05-07T00:24:31;32.57;;;13.03;;
72761;SDS011;60886;55.034;73.150;2023-05-07T00:27:32;34.08;;;12.25;;
72761;SDS011;60886;55.034;73.150;2023-05-07T00:30:35;32.10;;;13.30;;
72761;SDS011;60886;55.034;73.150;2023-05-07T00:33:37;32.90;;;13.10;;
72761;SDS011;60886;55.034;73.150;2023-05-07T00:36:39;37.28;;;13.25;;
72761;SDS011;60886;55.034;73.150;2023-05-07T00:39:40;36.92;;;13.52;;
72761;SDS011;60886;55.034;73.150;2023-05-07T00:42:42;37.28;;;14.35;;
72761;SDS011;60886;55.034;73.150;2023-05-07T00:45:47;32.67;;;11.47;;
72761;SDS011;60886;55.034;73.150;2023-05-07T00:48:50;25.40;;;9.00;;
72761;SDS011;60886;55.034;73.150;2023-05-07T00:51:52;22.17;;;7.57;;
72761;SDS011;60886;55.034;73.150;2023-05-07T00:54:54;21.48;;;7.50;;
72761;SDS011;60886;55.034;73.150;2023-05-07T00:57:56;19.63;;;7.77;;
72761;SDS011;60886;55.034;73.150;2023-05-07T01:00:57;43.75;;;22.23;;
72761;SDS011;60886;55.034;73.150;2023-05-07T01:03:59;21.97;;;7.53;;
72761;SDS011;60886;55.034;73.150;2023-05-07T01:07:00;18.47;;;6.93;;
72761;SDS011;60886;55.034;73.150;2023-05-07T01:10:03;16.85;;;7.00;;
72761;SDS011;60886;55.034;73.150;2023-05-07T01:13:06;15.13;;;6.53;;
72761;SDS011;60886;55.034;73.150;2023-05-07T01:16:08;20.27;;;7.20;;
72761;SDS011;60886;55.034;73.150;2023-05-07T01:19:11;23.95;;;10.30;;
72761;SDS011;60886;55.034;73.150;2023-05-07T01:25:43;25.08;;;10.80;;
72761;SDS011;60886;55.034;73.150;2023-05-07T01:28:51;31.43;;;11.30;;
72761;SDS011;60886;55.034;73.150;2023-05-07T01:31:52;37.55;;;12.77;;
72761;SDS011;60886;55.034;73.150;2023-05-07T01:34:55;31.60;;;13.10;;
72761;SDS011;60886;55.034;73.150;2023-05-07T01:37:58;25.03;;;9.93;;
72761;SDS011;60886;55.034;73.150;2023-05-07T01:41:00;29.42;;;12.25;;
72761;SDS011;60886;55.034;73.150;2023-05-07T01:44:02;21.57;;;8.47;;
72761;SDS011;60886;55.034;73.150;2023-05-07T01:47:05;18.08;;;7.43;;
72761;SDS011;60886;55.034;73.150;2023-05-07T01:50:08;18.23;;;6.15;;
72761;SDS011;60886;55.034;73.150;2023-05-07T01:53:10;14.73;;;6.10;;
72761;SDS011;60886;55.034;73.150;2023-05-07T01:56:12;17.77;;;7.82;;
72761;SDS011;60886;55.034;73.150;2023-05-07T01:59:15;16.77;;;5.93;;
72761;SDS011;60886;55.034;73.150;2023-05-07T02:02:17;18.13;;;6.00;;
72761;SDS011;60886;55.034;73.150;2023-05-07T02:05:19;17.70;;;6.17;;
72761;SDS011;60886;55.034;73.150;2023-05-07T02:08:26;32.17;;;15.65;;
72761;SDS011;60886;55.034;73.150;2023-05-07T02:11:27;20.00;;;6.82;;
72761;SDS011;60886;55.034;73.150;2023-05-07T02:14:29;15.73;;;5.68;;
72761;SDS011;60886;55.034;73.150;2023-05-07T02:17:31;15.03;;;5.63;;
72761;SDS011;60886;55.034;73.150;2023-05-07T02:20:34;14.45;;;5.93;;
72761;SDS011;60886;55.034;73.150;2023-05-07T02:23:37;15.53;;;5.60;;
72761;SDS011;60886;55.034;73.150;2023-05-07T02:26:39;14.85;;;4.90;;
72761;SDS011;60886;55.034;73.150;2023-05-07T02:29:41;12.20;;;4.83;;
72761;SDS011;60886;55.034;73.150;2023-05-07T02:32:43;16.13;;;5.40;;
72761;SDS011;60886;55.034;73.150;2023-05-07T02:35:44;17.10;;;5.80;;
72761;SDS011;60886;55.034;73.150;2023-05-07T02:38:57;20.38;;;7.55;;
72761;SDS011;60886;55.034;73.150;2023-05-07T02:41:58;21.37;;;7.47;;
72761;SDS011;60886;55.034;73.150;2023-05-07T02:45:00;18.80;;;6.65;;
72761;SDS011;60886;55.034;73.150;2023-05-07T02:48:04;17.67;;;6.80;;
72761;SDS011;60886;55.034;73.150;2023-05-07T02:51:07;15.77;;;5.43;;
72761;SDS011;60886;55.034;73.150;2023-05-07T02:54:10;12.80;;;4.63;;
72761;SDS011;60886;55.034;73.150;2023-05-07T02:57:12;13.75;;;4.68;;
72761;SDS011;60886;55.034;73.150;2023-05-07T03:00:14;14.20;;;4.50;;
72761;SDS011;60886;55.034;73.150;2023-05-07T03:03:24;13.93;;;4.28;;
72761;SDS011;60886;55.034;73.150;2023-05-07T03:06:25;13.05;;;4.20;;
72761;SDS011;60886;55.034;73.150;2023-05-07T03:09:27;11.03;;;3.80;;
72761;SDS011;60886;55.034;73.150;2023-05-07T03:12:28;13.57;;;4.10;;
72761;SDS011;60886;55.034;73.150;2023-05-07T03:15:30;10.98;;;3.60;;
72761;SDS011;60886;55.034;73.150;2023-05-07T03:18:31;14.63;;;3.40;;
72761;SDS011;60886;55.034;73.150;2023-05-07T03:21:32;8.75;;;2.92;;
72761;SDS011;60886;55.034;73.150;2023-05-07T03:24:35;7.23;;;2.83;;
72761;SDS011;60886;55.034;73.150;2023-05-07T03:27:37;9.43;;;3.10;;
72761;SDS011;60886;55.034;73.150;2023-05-07T03:30:39;8.73;;;2.90;;
72761;SDS011;60886;55.034;73.150;2023-05-07T03:33:50;10.98;;;3.20;;
72761;SDS011;60886;55.034;73.150;2023-05-07T03:36:56;9.50;;;3.29;;
72761;SDS011;60886;55.034;73.150;2023-05-07T03:39:59;11.02;;;3.28;;
72761;SDS011;60886;55.034;73.150;2023-05-07T03:43:01;11.73;;;3.30;;
72761;SDS011;60886;55.034;73.150;2023-05-07T03:46:05;9.07;;;3.03;;
72761;SDS011;60886;55.034;73.150;2023-05-07T03:49:06;9.23;;;3.05;;
72761;SDS011;60886;55.034;73.150;2023-05-07T03:52:08;16.57;;;3.00;;
72761;SDS011;60886;55.034;73.150;2023-05-07T03:55:09;10.15;;;3.00;;
72761;SDS011;60886;55.034;73.150;2023-05-07T03:58:13;11.13;;;2.87;;
72761;SDS011;60886;55.034;73.150;2023-05-07T04:01:14;8.98;;;2.33;;
72761;SDS011;60886;55.034;73.150;2023-05-07T04:04:16;9.93;;;2.67;;
72761;SDS011;60886;55.034;73.150;2023-05-07T04:07:17;9.73;;;2.70;;
72761;SDS011;60886;55.034;73.150;2023-05-07T04:10:24;9.32;;;2.50;;
72761;SDS011;60886;55.034;73.150;2023-05-07T04:13:29;23.23;;;16.70;;
72761;SDS011;60886;55.034;73.150;2023-05-07T04:16:34;9.88;;;2.78;;
72761;SDS011;60886;55.034;73.150;2023-05-07T04:19:36;8.43;;;2.28;;
72761;SDS011;60886;55.034;73.150;2023-05-07T04:22:38;7.20;;;2.43;;
72761;SDS011;60886;55.034;73.150;2023-05-07T04:25:41;8.23;;;3.40;;
72761;SDS011;60886;55.034;73.150;2023-05-07T04:28:54;7.78;;;2.58;;
72761;SDS011;60886;55.034;73.150;2023-05-07T04:31:56;8.68;;;2.23;;
72761;SDS011;60886;55.034;73.150;2023-05-07T04:34:57;10.13;;;2.47;;
72761;SDS011;60886;55.034;73.150;2023-05-07T04:37:59;10.70;;;2.90;;
72761;SDS011;60886;55.034;73.150;2023-05-07T04:41:04;10.17;;;2.50;;
72761;SDS011;60886;55.034;73.150;2023-05-07T04:44:10;8.45;;;2.20;;
72761;SDS011;60886;55.034;73.150;2023-05-07T04:47:12;9.23;;;2.20;;
72761;SDS011;60886;55.034;73.150;2023-05-07T04:50:14;9.03;;;2.90;;
72761;SDS011;60886;55.034;73.150;2023-05-07T04:53:17;9.50;;;2.60;;
72761;SDS011;60886;55.034;73.150;2023-05-07T04:56:19;9.18;;;2.80;;
72761;SDS011;60886;55.034;73.150;2023-05-07T04:59:21;7.53;;;2.22;;
72761;SDS011;60886;55.034;73.150;2023-05-07T05:02:24;9.77;;;2.83;;
72761;SDS011;60886;55.034;73.150;2023-05-07T05:05:26;6.20;;;2.07;;
72761;SDS011;60886;55.034;73.150;2023-05-07T05:08:29;7.50;;;2.60;;
72761;SDS011;60886;55.034;73.150;2023-05-07T05:11:32;8.18;;;2.20;;
72761;SDS011;60886;55.034;73.150;2023-05-07T05:14:34;10.90;;;2.40;;
72761;SDS011;60886;55.034;73.150;2023-05-07T05:17:35;9.50;;;2.53;;
72761;SDS011;60886;55.034;73.150;2023-05-07T05:20:39;6.60;;;2.67;;
72761;SDS011;60886;55.034;73.150;2023-05-07T05:23:41;8.43;;;2.20;;
72761;SDS011;60886;55.034;73.150;2023-05-07T05:26:53;8.20;;;2.46;;
72761;SDS011;60886;55.034;73.150;2023-05-07T05:29:56;8.73;;;2.20;;
72761;SDS011;60886;55.034;73.150;2023-05-07T05:32:57;7.63;;;2.27;;
72761;SDS011;60886;55.034;73.150;2023-05-07T05:36:01;7.70;;;2.40;;
72761;SDS011;60886;55.034;73.150;2023-05-07T05:39:02;6.28;;;2.03;;
72761;SDS011;60886;55.034;73.150;2023-05-07T05:42:04;8.07;;;2.75;;
72761;SDS011;60886;55.034;73.150;2023-05-07T05:45:08;8.23;;;2.40;;
72761;SDS011;60886;55.034;73.150;2023-05-07T05:48:10;7.77;;;2.20;;
72761;SDS011;60886;55.034;73.150;2023-05-07T05:51:13;7.45;;;2.00;;
72761;SDS011;60886;55.034;73.150;2023-05-07T05:54:14;8.30;;;2.30;;
72761;SDS011;60886;55.034;73.150;2023-05-07T05:57:17;12.70;;;4.63;;
72761;SDS011;60886;55.034;73.150;2023-05-07T06:00:20;9.60;;;4.80;;
72761;SDS011;60886;55.034;73.150;2023-05-07T06:03:31;8.77;;;2.47;;
72761;SDS011;60886;55.034;73.150;2023-05-07T06:06:41;8.20;;;2.40;;
72761;SDS011;60886;55.034;73.150;2023-05-07T06:09:43;6.73;;;2.10;;
72761;SDS011;60886;55.034;73.150;2023-05-07T06:12:45;6.47;;;2.03;;
72761;SDS011;60886;55.034;73.150;2023-05-07T06:15:48;9.70;;;2.35;;
72761;SDS011;60886;55.034;73.150;2023-05-07T06:18:50;8.10;;;2.38;;
72761;SDS011;60886;55.034;73.150;2023-05-07T06:21:52;8.00;;;2.17;;
72761;SDS011;60886;55.034;73.150;2023-05-07T06:24:54;7.55;;;2.15;;
72761;SDS011;60886;55.034;73.150;2023-05-07T06:27:57;19.20;;;10.60;;
72761;SDS011;60886;55.034;73.150;2023-05-07T06:31:13;7.57;;;2.73;;
72761;SDS011;60886;55.034;73.150;2023-05-07T06:34:20;6.03;;;2.17;;
72761;SDS011;60886;55.034;73.150;2023-05-07T06:37:22;8.70;;;2.30;;
72761;SDS011;60886;55.034;73.150;2023-05-07T06:40:31;7.20;;;2.20;;
72761;SDS011;60886;55.034;73.150;2023-05-07T06:43:35;7.47;;;2.50;;
72761;SDS011;60886;55.034;73.150;2023-05-07T06:47:05;7.75;;;2.03;;
72761;SDS011;60886;55.034;73.150;2023-05-07T06:50:07;6.35;;;2.00;;
72761;SDS011;60886;55.034;73.150;2023-05-07T06:53:11;7.27;;;2.40;;
72761;SDS011;60886;55.034;73.150;2023-05-07T06:56:13;8.23;;;2.50;;
72761;SDS011;60886;55.034;73.150;2023-05-07T06:59:15;9.43;;;2.40;;
72761;SDS011;60886;55.034;73.150;2023-05-07T07:02:18;7.82;;;2.40;;
72761;SDS011;60886;55.034;73.150;2023-05-07T07:05:30;6.70;;;2.20;;
72761;SDS011;60886;55.034;73.150;2023-05-07T07:08:32;6.20;;;2.20;;
72761;SDS011;60886;55.034;73.150;2023-05-07T07:11:35;8.70;;;2.20;;
72761;SDS011;60886;55.034;73.150;2023-05-07T07:14:37;9.57;;;2.25;;
72761;SDS011;60886;55.034;73.150;2023-05-07T07:17:40;8.30;;;2.33;;
72761;SDS011;60886;55.034;73.150;2023-05-07T07:20:42;9.88;;;2.13;;
72761;SDS011;60886;55.034;73.150;2023-05-07T07:23:45;10.33;;;2.27;;
72761;SDS011;60886;55.034;73.150;2023-05-07T07:26:52;7.32;;;2.20;;
72761;SDS011;60886;55.034;73.150;2023-05-07T07:29:56;7.70;;;2.30;;
72761;SDS011;60886;55.034;73.150;2023-05-07T07:32:58;7.05;;;2.30;;
72761;SDS011;60886;55.034;73.150;2023-05-07T07:36:05;20.98;;;5.15;;
72761;SDS011;60886;55.034;73.150;2023-05-07T07:39:08;10.50;;;3.42;;
72761;SDS011;60886;55.034;73.150;2023-05-07T07:42:11;8.20;;;2.60;;
72761;SDS011;60886;55.034;73.150;2023-05-07T07:45:13;6.35;;;1.95;;
72761;SDS011;60886;55.034;73.150;2023-05-07T07:48:19;7.35;;;1.92;;
72761;SDS011;60886;55.034;73.150;2023-05-07T07:51:20;9.07;;;2.40;;
72761;SDS011;60886;55.034;73.150;2023-05-07T07:54:22;8.30;;;2.60;;
72761;SDS011;60886;55.034;73.150;2023-05-07T07:57:24;7.87;;;2.37;;
72761;SDS011;60886;55.034;73.150;2023-05-07T08:00:26;6.53;;;2.10;;
72761;SDS011;60886;55.034;73.150;2023-05-07T08:03:30;5.93;;;2.10;;
72761;SDS011;60886;55.034;73.150;2023-05-07T08:06:34;10.50;;;2.45;;
72761;SDS011;60886;55.034;73.150;2023-05-07T08:09:39;6.90;;;2.00;;
72761;SDS011;60886;55.034;73.150;2023-05-07T08:12:45;7.40;;;2.00;;
72761;SDS011;60886;55.034;73.150;2023-05-07T08:16:02;6.50;;;2.00;;
72761;SDS011;60886;55.034;73.150;2023-05-07T08:19:11;8.23;;;2.20;;
72761;SDS011;60886;55.034;73.150;2023-05-07T08:22:25;8.57;;;2.60;;
72761;SDS011;60886;55.034;73.150;2023-05-07T08:25:30;7.90;;;2.53;;
72761;SDS011;60886;55.034;73.150;2023-05-07T08:28:31;9.10;;;2.67;;
72761;SDS011;60886;55.034;73.150;2023-05-07T08:31:33;8.57;;;2.80;;
72761;SDS011;60886;55.034;73.150;2023-05-07T08:34:35;10.80;;;2.60;;
72761;SDS011;60886;55.034;73.150;2023-05-07T08:37:38;9.37;;;2.17;;
72761;SDS011;60886;55.034;73.150;2023-05-07T08:40:41;6.30;;;2.33;;
72761;SDS011;60886;55.034;73.150;2023-05-07T08:43:48;7.03;;;2.10;;
72761;SDS011;60886;55.034;73.150;2023-05-07T08:46:52;6.20;;;2.03;;
72761;SDS011;60886;55.034;73.150;2023-05-07T08:49:58;8.18;;;2.47;;
72761;SDS011;60886;55.034;73.150;2023-05-07T08:52:59;6.87;;;2.17;;
72761;SDS011;60886;55.034;73.150;2023-05-07T08:56:02;7.75;;;2.10;;
72761;SDS011;60886;55.034;73.150;2023-05-07T08:59:05;8.43;;;2.35;;
72761;SDS011;60886;55.034;73.150;2023-05-07T09:02:06;6.07;;;2.17;;
72761;SDS011;60886;55.034;73.150;2023-05-07T09:05:11;10.73;;;2.20;;
72761;SDS011;60886;55.034;73.150;2023-05-07T09:08:14;8.90;;;2.27;;
72761;SDS011;60886;55.034;73.150;2023-05-07T09:11:21;6.47;;;2.00;;
72761;SDS011;60886;55.034;73.150;2023-05-07T09:14:24;6.03;;;2.25;;
72761;SDS011;60886;55.034;73.150;2023-05-07T09:17:26;8.63;;;2.57;;
72761;SDS011;60886;55.034;73.150;2023-05-07T09:20:31;10.13;;;2.38;;
72761;SDS011;60886;55.034;73.150;2023-05-07T09:23:34;11.65;;;4.03;;
72761;SDS011;60886;55.034;73.150;2023-05-07T09:26:35;9.23;;;2.30;;
72761;SDS011;60886;55.034;73.150;2023-05-07T09:29:39;8.60;;;2.57;;
72761;SDS011;60886;55.034;73.150;2023-05-07T09:32:41;6.18;;;2.30;;
72761;SDS011;60886;55.034;73.150;2023-05-07T09:35:52;11.10;;;2.55;;
72761;SDS011;60886;55.034;73.150;2023-05-07T09:38:56;7.40;;;2.20;;
72761;SDS011;60886;55.034;73.150;2023-05-07T09:42:01;8.77;;;2.90;;
72761;SDS011;60886;55.034;73.150;2023-05-07T09:45:07;11.60;;;3.60;;
72761;SDS011;60886;55.034;73.150;2023-05-07T09:48:12;10.57;;;2.90;;
72761;SDS011;60886;55.034;73.150;2023-05-07T09:51:22;7.65;;;2.28;;
72761;SDS011;60886;55.034;73.150;2023-05-07T09:54:35;11.57;;;3.80;;
72761;SDS011;60886;55.034;73.150;2023-05-07T09:57:40;8.73;;;2.33;;
72761;SDS011;60886;55.034;73.150;2023-05-07T10:00:43;9.25;;;2.92;;
72761;SDS011;60886;55.034;73.150;2023-05-07T10:03:49;9.88;;;2.70;;
72761;SDS011;60886;55.034;73.150;2023-05-07T10:06:52;10.27;;;2.67;;
72761;SDS011;60886;55.034;73.150;2023-05-07T10:09:59;11.97;;;3.87;;
72761;SDS011;60886;55.034;73.150;2023-05-07T10:13:10;12.27;;;2.83;;
72761;SDS011;60886;55.034;73.150;2023-05-07T10:16:14;6.65;;;2.40;;
72761;SDS011;60886;55.034;73.150;2023-05-07T10:19:21;7.87;;;3.40;;
72761;SDS011;60886;55.034;73.150;2023-05-07T10:22:27;13.43;;;2.70;;
72761;SDS011;60886;55.034;73.150;2023-05-07T10:25:32;6.60;;;2.60;;
72761;SDS011;60886;55.034;73.150;2023-05-07T10:28:41;8.48;;;3.42;;
72761;SDS011;60886;55.034;73.150;2023-05-07T10:34:58;10.93;;;2.70;;
72761;SDS011;60886;55.034;73.150;2023-05-07T10:38:05;10.35;;;4.13;;
72761;SDS011;60886;55.034;73.150;2023-05-07T10:41:10;13.90;;;4.40;;
72761;SDS011;60886;55.034;73.150;2023-05-07T10:44:28;11.17;;;4.60;;
72761;SDS011;60886;55.034;73.150;2023-05-07T10:47:33;14.50;;;3.50;;
72761;SDS011;60886;55.034;73.150;2023-05-07T10:50:36;9.67;;;2.70;;
72761;SDS011;60886;55.034;73.150;2023-05-07T10:53:40;18.30;;;6.43;;
72761;SDS011;60886;55.034;73.150;2023-05-07T10:56:52;9.95;;;3.50;;
72761;SDS011;60886;55.034;73.150;2023-05-07T10:59:58;19.95;;;7.20;;
72761;SDS011;60886;55.034;73.150;2023-05-07T11:03:08;14.70;;;6.27;;
72761;SDS011;60886;55.034;73.150;2023-05-07T11:06:24;14.70;;;5.87;;
72761;SDS011;60886;55.034;73.150;2023-05-07T11:13:07;9.65;;;3.17;;
72761;SDS011;60886;55.034;73.150;2023-05-07T11:16:18;10.10;;;3.80;;
72761;SDS011;60886;55.034;73.150;2023-05-07T11:26:58;11.23;;;4.00;;
72761;SDS011;60886;55.034;73.150;2023-05-07T11:30:03;11.95;;;3.88;;
72761;SDS011;60886;55.034;73.150;2023-05-07T11:33:07;11.05;;;4.53;;
72761;SDS011;60886;55.034;73.150;2023-05-07T11:36:10;12.83;;;4.70;;
72761;SDS011;60886;55.034;73.150;2023-05-07T11:39:26;13.52;;;5.70;;
72761;SDS011;60886;55.034;73.150;2023-05-07T11:42:34;14.30;;;4.87;;
72761;SDS011;60886;55.034;73.150;2023-05-07T11:45:38;10.90;;;4.55;;
72761;SDS011;60886;55.034;73.150;2023-05-07T11:48:40;14.47;;;5.63;;
72761;SDS011;60886;55.034;73.150;2023-05-07T11:51:42;14.50;;;5.57;;
72761;SDS011;60886;55.034;73.150;2023-05-07T11:54:50;11.03;;;5.10;;
72761;SDS011;60886;55.034;73.150;2023-05-07T11:57:53;13.93;;;6.63;;
72761;SDS011;60886;55.034;73.150;2023-05-07T12:00:55;13.57;;;5.47;;
72761;SDS011;60886;55.034;73.150;2023-05-07T12:03:56;14.27;;;4.80;;
72761;SDS011;60886;55.034;73.150;2023-05-07T12:06:58;10.80;;;4.20;;
72761;SDS011;60886;55.034;73.150;2023-05-07T12:10:03;12.77;;;4.22;;
72761;SDS011;60886;55.034;73.150;2023-05-07T12:13:13;14.70;;;4.07;;
72761;SDS011;60886;55.034;73.150;2023-05-07T12:16:26;13.75;;;5.28;;
72761;SDS011;60886;55.034;73.150;2023-05-07T12:19:29;10.98;;;4.22;;
72761;SDS011;60886;55.034;73.150;2023-05-07T12:22:31;12.18;;;4.15;;
72761;SDS011;60886;55.034;73.150;2023-05-07T12:25:36;11.57;;;4.20;;
72761;SDS011;60886;55.034;73.150;2023-05-07T12:28:39;11.07;;;4.43;;
72761;SDS011;60886;55.034;73.150;2023-05-07T12:31:41;10.80;;;4.17;;
72761;SDS011;60886;55.034;73.150;2023-05-07T12:34:43;13.65;;;4.70;;
72761;SDS011;60886;55.034;73.150;2023-05-07T12:37:45;10.85;;;4.32;;
72761;SDS011;60886;55.034;73.150;2023-05-07T12:40:56;12.93;;;4.10;;
72761;SDS011;60886;55.034;73.150;2023-05-07T12:43:57;12.32;;;3.90;;
72761;SDS011;60886;55.034;73.150;2023-05-07T12:47:02;22.50;;;11.43;;
72761;SDS011;60886;55.034;73.150;2023-05-07T12:50:07;17.90;;;6.28;;
72761;SDS011;60886;55.034;73.150;2023-05-07T12:53:09;13.10;;;6.43;;
72761;SDS011;60886;55.034;73.150;2023-05-07T12:56:12;11.82;;;5.07;;
72761;SDS011;60886;55.034;73.150;2023-05-07T12:59:16;14.53;;;5.37;;
72761;SDS011;60886;55.034;73.150;2023-05-07T13:02:18;14.88;;;4.78;;
72761;SDS011;60886;55.034;73.150;2023-05-07T13:05:20;11.33;;;5.20;;
72761;SDS011;60886;55.034;73.150;2023-05-07T13:11:30;11.75;;;5.85;;
72761;SDS011;60886;55.034;73.150;2023-05-07T13:14:32;15.27;;;6.32;;
72761;SDS011;60886;55.034;73.150;2023-05-07T13:17:34;13.90;;;5.50;;
72761;SDS011;60886;55.034;73.150;2023-05-07T13:20:35;21.48;;;12.30;;
72761;SDS011;60886;55.034;73.150;2023-05-07T13:23:37;13.80;;;4.77;;
72761;SDS011;60886;55.034;73.150;2023-05-07T13:26:39;13.38;;;4.70;;
72761;SDS011;60886;55.034;73.150;2023-05-07T13:29:40;10.93;;;4.90;;
72761;SDS011;60886;55.034;73.150;2023-05-07T13:32:42;12.40;;;5.07;;
72761;SDS011;60886;55.034;73.150;2023-05-07T13:35:44;20.73;;;5.23;;
72761;SDS011;60886;55.034;73.150;2023-05-07T13:38:45;15.80;;;6.30;;
72761;SDS011;60886;55.034;73.150;2023-05-07T13:41:52;11.52;;;5.07;;
72761;SDS011;60886;55.034;73.150;2023-05-07T13:44:53;12.90;;;5.80;;
72761;SDS011;60886;55.034;73.150;2023-05-07T13:47:55;14.68;;;6.63;;
72761;SDS011;60886;55.034;73.150;2023-05-07T13:50:57;16.80;;;6.35;;
72761;SDS011;60886;55.034;73.150;2023-05-07T13:53:59;13.97;;;5.90;;
72761;SDS011;60886;55.034;73.150;2023-05-07T13:57:00;11.00;;;5.10;;
72761;SDS011;60886;55.034;73.150;2023-05-07T14:00:03;13.90;;;5.53;;
72761;SDS011;60886;55.034;73.150;2023-05-07T14:03:16;11.03;;;4.90;;
72761;SDS011;60886;55.034;73.150;2023-05-07T14:06:18;17.83;;;8.33;;
72761;SDS011;60886;55.034;73.150;2023-05-07T14:09:19;11.47;;;5.00;;
72761;SDS011;60886;55.034;73.150;2023-05-07T14:12:21;15.60;;;5.38;;
72761;SDS011;60886;55.034;73.150;2023-05-07T14:15:22;11.18;;;4.47;;
72761;SDS011;60886;55.034;73.150;2023-05-07T14:18:24;12.15;;;4.90;;
72761;SDS011;60886;55.034;73.150;2023-05-07T14:21:25;12.83;;;4.47;;
72761;SDS011;60886;55.034;73.150;2023-05-07T14:24:28;14.70;;;4.70;;
72761;SDS011;60886;55.034;73.150;2023-05-07T14:27:30;14.88;;;6.22;;
72761;SDS011;60886;55.034;73.150;2023-05-07T14:30:31;16.73;;;7.60;;
72761;SDS011;60886;55.034;73.150;2023-05-07T14:33:33;14.53;;;5.60;;
72761;SDS011;60886;55.034;73.150;2023-05-07T14:36:34;13.18;;;5.72;;
72761;SDS011;60886;55.034;73.150;2023-05-07T14:39:49;18.20;;;7.72;;
72761;SDS011;60886;55.034;73.150;2023-05-07T14:42:51;21.35;;;12.77;;
72761;SDS011;60886;55.034;73.150;2023-05-07T14:45:52;28.70;;;13.40;;
72761;SDS011;60886;55.034;73.150;2023-05-07T14:48:54;23.10;;;11.67;;
72761;SDS011;60886;55.034;73.150;2023-05-07T14:51:59;34.01;;;16.30;;
72761;SDS011;60886;55.034;73.150;2023-05-07T14:55:05;27.98;;;15.68;;
72761;SDS011;60886;55.034;73.150;2023-05-07T14:58:07;20.77;;;11.03;;
72761;SDS011;60886;55.034;73.150;2023-05-07T15:01:08;19.17;;;9.43;;
72761;SDS011;60886;55.034;73.150;2023-05-07T15:04:11;23.70;;;8.33;;
72761;SDS011;60886;55.034;73.150;2023-05-07T15:07:13;24.73;;;13.65;;
72761;SDS011;60886;55.034;73.150;2023-05-07T15:10:18;22.08;;;11.48;;
72761;SDS011;60886;55.034;73.150;2023-05-07T15:13:20;21.05;;;9.50;;
72761;SDS011;60886;55.034;73.150;2023-05-07T15:16:22;22.63;;;12.38;;
72761;SDS011;60886;55.034;73.150;2023-05-07T15:19:23;21.88;;;9.65;;
72761;SDS011;60886;55.034;73.150;2023-05-07T15:22:29;21.70;;;8.50;;
72761;SDS011;60886;55.034;73.150;2023-05-07T15:25:31;22.88;;;8.43;;
72761;SDS011;60886;55.034;73.150;2023-05-07T15:28:34;20.92;;;7.88;;
72761;SDS011;60886;55.034;73.150;2023-05-07T15:31:36;23.00;;;9.30;;
72761;SDS011;60886;55.034;73.150;2023-05-07T15:34:38;18.10;;;6.63;;
72761;SDS011;60886;55.034;73.150;2023-05-07T15:37:40;19.08;;;7.10;;
72761;SDS011;60886;55.034;73.150;2023-05-07T15:40:41;23.23;;;9.17;;
72761;SDS011;60886;55.034;73.150;2023-05-07T15:43:44;21.60;;;10.32;;
72761;SDS011;60886;55.034;73.150;2023-05-07T15:46:52;20.98;;;11.20;;
72761;SDS011;60886;55.034;73.150;2023-05-07T15:49:54;17.83;;;9.02;;
72761;SDS011;60886;55.034;73.150;2023-05-07T15:52:56;20.05;;;8.45;;
72761;SDS011;60886;55.034;73.150;2023-05-07T15:55:58;30.80;;;17.20;;
72761;SDS011;60886;55.034;73.150;2023-05-07T15:58:59;15.57;;;7.60;;
72761;SDS011;60886;55.034;73.150;2023-05-07T16:02:02;17.17;;;8.00;;
72761;SDS011;60886;55.034;73.150;2023-05-07T16:05:04;17.13;;;8.05;;
72761;SDS011;60886;55.034;73.150;2023-05-07T16:08:09;17.27;;;8.93;;
72761;SDS011;60886;55.034;73.150;2023-05-07T16:11:11;17.40;;;8.95;;
72761;SDS011;60886;55.034;73.150;2023-05-07T16:14:12;15.02;;;8.18;;
72761;SDS011;60886;55.034;73.150;2023-05-07T16:17:14;20.35;;;9.43;;
72761;SDS011;60886;55.034;73.150;2023-05-07T16:20:15;33.13;;;19.60;;
72761;SDS011;60886;55.034;73.150;2023-05-07T16:23:19;23.17;;;10.27;;
72761;SDS011;60886;55.034;73.150;2023-05-07T16:26:21;28.13;;;9.40;;
72761;SDS011;60886;55.034;73.150;2023-05-07T16:29:22;21.90;;;8.48;;
72761;SDS011;60886;55.034;73.150;2023-05-07T16:32:24;17.93;;;8.20;;
72761;SDS011;60886;55.034;73.150;2023-05-07T16:35:28;24.40;;;10.57;;
72761;SDS011;60886;55.034;73.150;2023-05-07T16:38:29;17.30;;;6.60;;
72761;SDS011;60886;55.034;73.150;2023-05-07T16:41:35;21.35;;;6.00;;
72761;SDS011;60886;55.034;73.150;2023-05-07T16:44:37;12.83;;;6.00;;
72761;SDS011;60886;55.034;73.150;2023-05-07T16:47:46;17.13;;;6.23;;
72761;SDS011;60886;55.034;73.150;2023-05-07T16:50:48;12.80;;;5.25;;
72761;SDS011;60886;55.034;73.150;2023-05-07T16:53:49;14.17;;;5.73;;
72761;SDS011;60886;55.034;73.150;2023-05-07T16:56:52;14.07;;;5.82;;
72761;SDS011;60886;55.034;73.150;2023-05-07T16:59:57;11.00;;;5.30;;
72761;SDS011;60886;55.034;73.150;2023-05-07T17:03:00;12.73;;;4.63;;
72761;SDS011;60886;55.034;73.150;2023-05-07T17:06:02;18.52;;;5.30;;
72761;SDS011;60886;55.034;73.150;2023-05-07T17:09:03;13.17;;;4.90;;
72761;SDS011;60886;55.034;73.150;2023-05-07T17:12:05;18.90;;;5.60;;
72761;SDS011;60886;55.034;73.150;2023-05-07T17:15:07;14.50;;;5.03;;
72761;SDS011;60886;55.034;73.150;2023-05-07T17:18:09;12.73;;;5.00;;
72761;SDS011;60886;55.034;73.150;2023-05-07T17:21:11;11.47;;;4.97;;
72761;SDS011;60886;55.034;73.150;2023-05-07T17:24:12;13.10;;;5.10;;
72761;SDS011;60886;55.034;73.150;2023-05-07T17:27:14;15.40;;;5.07;;
72761;SDS011;60886;55.034;73.150;2023-05-07T17:30:15;14.50;;;5.43;;
72761;SDS011;60886;55.034;73.150;2023-05-07T17:33:17;12.93;;;5.30;;
72761;SDS011;60886;55.034;73.150;2023-05-07T17:36:18;12.02;;;5.20;;
72761;SDS011;60886;55.034;73.150;2023-05-07T17:39:20;15.27;;;5.15;;
72761;SDS011;60886;55.034;73.150;2023-05-07T17:42:21;16.40;;;7.30;;
72761;SDS011;60886;55.034;73.150;2023-05-07T17:45:23;14.55;;;5.45;;
72761;SDS011;60886;55.034;73.150;2023-05-07T17:48:24;10.90;;;4.32;;
72761;SDS011;60886;55.034;73.150;2023-05-07T17:51:26;21.77;;;10.73;;
72761;SDS011;60886;55.034;73.150;2023-05-07T17:54:29;11.77;;;5.30;;
72761;SDS011;60886;55.034;73.150;2023-05-07T17:57:33;15.53;;;5.57;;
72761;SDS011;60886;55.034;73.150;2023-05-07T18:00:38;15.18;;;5.57;;
72761;SDS011;60886;55.034;73.150;2023-05-07T18:03:40;13.50;;;5.50;;
72761;SDS011;60886;55.034;73.150;2023-05-07T18:06:42;12.88;;;5.45;;
72761;SDS011;60886;55.034;73.150;2023-05-07T18:09:44;14.20;;;5.00;;
72761;SDS011;60886;55.034;73.150;2023-05-07T18:12:45;13.17;;;5.17;;
72761;SDS011;60886;55.034;73.150;2023-05-07T18:15:47;15.20;;;5.00;;